Time;durP1;ratioP1;P1;durP2;ratioP2;P2;SDS_P1;SDS_P2;PMS_P1;PMS_P2;Temp;Humidity;BMP_temperature;BMP_pressure;BME280_temperature;BME280_humidity;BME280_pressure;Samples;Min_cycle;Max_cycle;Signal;HPM_P1;HPM_P2
2022/08/20 00:00:44;;;;;;;;;;;18.10;99.90;;;;;;4997532;28;19939;-65
2022/08/20 00:03:13;;;;;;;;;;;18.10;99.90;;;;;;4997904;28;19930;-64
2022/08/20 00:05:43;;;;;;;;;;;18.00;99.90;;;;;;4997567;28;20024;-65
2022/08/20 00:08:10;;;;;;;;;;;18.00;99.90;;;;;;4997693;28;19933;-65
2022/08/20 00:10:38;;;;;;;;;;;18.00;99.90;;;;;;5000895;28;20248;-65
2022/08/20 00:13:06;;;;;;;;;;;17.90;99.90;;;;;;4999485;28;19932;-65
2022/08/20 00:15:34;;;;;;;;;;;18.00;99.90;;;;;;4999920;28;19933;-65
2022/08/20 00:18:01;;;;;;;;;;;18.00;99.90;;;;;;4997836;28;19947;-66
2022/08/20 00:20:30;;;;;;;;;;;18.00;99.90;;;;;;5005093;28;19994;-64
2022/08/20 00:22:58;;;;;;;;;;;18.00;99.90;;;;;;5002894;28;20427;-64
2022/08/20 00:25:27;;;;;;;;;;;17.90;99.90;;;;;;5006982;28;20007;-64
2022/08/20 00:27:54;;;;;;;;;;;17.90;99.90;;;;;;5003858;28;19934;-64
2022/08/20 00:30:21;;;;;;;;;;;17.90;99.90;;;;;;5006345;28;20464;-64
2022/08/20 00:32:49;;;;;;;;;;;17.80;99.90;;;;;;5002338;28;19937;-70
2022/08/20 00:35:17;;;;;;;;;;;17.80;99.90;;;;;;4999805;28;20322;-66
2022/08/20 00:37:43;;;;;;;;;;;17.80;99.90;;;;;;4999073;28;20127;-65
2022/08/20 00:40:12;;;;;;;;;;;17.70;99.90;;;;;;5003885;28;19932;-64
2022/08/20 00:42:40;;;;;;;;;;;17.60;99.90;;;;;;5001838;28;20027;-65
2022/08/20 00:45:07;;;;;;;;;;;17.60;99.90;;;;;;5006505;28;19973;-65
2022/08/20 00:47:34;;;;;;;;;;;17.60;99.90;;;;;;5004232;28;19941;-65
2022/08/20 00:50:01;;;;;;;;;;;17.70;99.90;;;;;;5006694;28;20387;-65
2022/08/20 00:52:27;;;;;;;;;;;17.70;99.90;;;;;;5002033;28;20025;-65
2022/08/20 00:54:57;;;;;;;;;;;17.70;99.90;;;;;;5000085;28;19933;-64
2022/08/20 00:57:28;;;;;;;;;;;17.60;99.90;;;;;;4998094;28;20441;-64
2022/08/20 00:59:56;;;;;;;;;;;17.50;99.90;;;;;;4998754;28;19986;-64
2022/08/20 01:02:26;;;;;;;;;;;17.50;99.90;;;;;;4999729;28;19926;-64
2022/08/20 01:04:53;;;;;;;;;;;17.50;99.90;;;;;;4997054;28;20452;-64
2022/08/20 01:07:23;;;;;;;;;;;17.40;99.90;;;;;;5001063;28;20307;-64
2022/08/20 01:09:50;;;;;;;;;;;17.40;99.90;;;;;;4999638;28;20444;-65
2022/08/20 01:12:17;;;;;;;;;;;17.40;99.90;;;;;;4999186;28;19933;-65
2022/08/20 01:14:45;;;;;;;;;;;17.40;99.90;;;;;;4998501;28;20371;-65
2022/08/20 01:17:14;;;;;;;;;;;17.40;99.90;;;;;;5004386;28;19933;-65
2022/08/20 01:19:43;;;;;;;;;;;17.40;99.90;;;;;;5003677;28;20005;-65
2022/08/20 01:24:52;;;;;;;;;;;17.30;99.90;;;;;;4998105;28;20406;-65
2022/08/20 01:27:21;;;;;;;;;;;17.20;99.90;;;;;;4999201;28;19933;-65
2022/08/20 01:29:49;;;;;;;;;;;17.10;99.90;;;;;;5000200;28;20292;-65
2022/08/20 01:32:15;;;;;;;;;;;17.10;99.90;;;;;;4998325;28;19925;-65
2022/08/20 01:34:42;;;;;;;;;;;17.00;99.90;;;;;;5003152;28;19932;-65
2022/08/20 01:37:09;;;;;;;;;;;17.00;99.90;;;;;;4998959;28;19957;-65
2022/08/20 01:39:36;;;;;;;;;;;17.00;99.90;;;;;;5001871;28;19976;-65
2022/08/20 01:42:05;;;;;;;;;;;17.00;99.90;;;;;;5003365;28;20012;-65
2022/08/20 01:44:34;;;;;;;;;;;16.90;99.90;;;;;;4997356;28;19949;-64
2022/08/20 01:47:08;;;;;;;;;;;16.80;99.90;;;;;;4998639;28;19925;-63
2022/08/20 01:49:35;;;;;;;;;;;16.80;99.90;;;;;;5004648;28;19926;-63
2022/08/20 01:52:06;;;;;;;;;;;16.70;99.90;;;;;;5000227;28;19929;-64
2022/08/20 01:54:33;;;;;;;;;;;16.70;99.90;;;;;;4997876;28;20004;-64
2022/08/20 01:57:02;;;;;;;;;;;16.70;99.90;;;;;;4996366;28;20384;-64
2022/08/20 01:59:29;;;;;;;;;;;16.60;99.90;;;;;;4998164;28;19987;-64
2022/08/20 02:01:57;;;;;;;;;;;16.60;99.90;;;;;;5000736;28;20068;-64
2022/08/20 02:04:25;;;;;;;;;;;16.50;99.90;;;;;;5001694;28;19934;-64
2022/08/20 02:06:54;;;;;;;;;;;16.50;99.90;;;;;;5004803;28;20020;-63
2022/08/20 02:09:21;;;;;;;;;;;16.40;99.90;;;;;;5002974;28;20017;-64
2022/08/20 02:11:48;;;;;;;;;;;16.40;99.90;;;;;;5002489;28;20020;-64
2022/08/20 02:14:15;;;;;;;;;;;16.40;99.90;;;;;;4999639;28;20380;-64
2022/08/20 02:16:43;;;;;;;;;;;16.40;99.90;;;;;;5003161;28;19925;-64
2022/08/20 02:19:13;;;;;;;;;;;16.40;99.90;;;;;;5001967;28;19929;-65
2022/08/20 02:21:42;;;;;;;;;;;16.30;99.90;;;;;;5006461;28;20008;-64
2022/08/20 02:24:09;;;;;;;;;;;16.30;99.90;;;;;;5003774;28;20024;-64
2022/08/20 02:26:37;;;;;;;;;;;16.20;99.90;;;;;;5009373;28;20450;-64
2022/08/20 02:29:04;;;;;;;;;;;16.20;99.90;;;;;;5000244;28;19926;-64
2022/08/20 02:31:31;;;;;;;;;;;16.10;99.90;;;;;;5001182;28;20372;-64
2022/08/20 02:33:58;;;;;;;;;;;16.10;99.90;;;;;;4999527;28;20371;-64
2022/08/20 02:36:26;;;;;;;;;;;16.10;99.90;;;;;;5002169;28;19926;-64
2022/08/20 02:38:53;;;;;;;;;;;16.10;99.90;;;;;;5001682;28;19982;-64
2022/08/20 02:41:20;;;;;;;;;;;16.00;99.90;;;;;;5007030;28;19925;-64
2022/08/20 02:43:48;;;;;;;;;;;16.00;99.90;;;;;;5006869;28;19933;-64
2022/08/20 02:46:15;;;;;;;;;;;16.00;99.90;;;;;;5005228;28;19964;-64
2022/08/20 02:48:42;;;;;;;;;;;16.00;99.90;;;;;;5001941;28;19926;-64
2022/08/20 02:51:08;;;;;;;;;;;15.90;99.90;;;;;;5009430;28;19925;-64
2022/08/20 02:53:38;;;;;;;;;;;15.90;99.90;;;;;;4999029;28;20016;-64
2022/08/20 02:56:05;;;;;;;;;;;15.90;99.90;;;;;;4996765;28;19969;-63
2022/08/20 02:58:34;;;;;;;;;;;15.90;99.90;;;;;;4998873;28;19926;-64
2022/08/20 03:01:00;;;;;;;;;;;15.80;99.90;;;;;;5000773;28;19926;-64
2022/08/20 03:03:27;;;;;;;;;;;15.80;99.90;;;;;;5000736;28;21515;-64
2022/08/20 03:05:55;;;;;;;;;;;15.80;99.90;;;;;;5004150;28;20015;-64
2022/08/20 03:08:22;;;;;;;;;;;15.80;99.90;;;;;;5005542;28;20362;-65
2022/08/20 03:10:50;;;;;;;;;;;15.80;99.90;;;;;;5007742;28;20363;-64
2022/08/20 03:13:18;;;;;;;;;;;15.80;99.90;;;;;;4999927;28;20501;-64
2022/08/20 03:15:46;;;;;;;;;;;15.80;99.90;;;;;;5002986;28;19980;-64
2022/08/20 03:18:13;;;;;;;;;;;15.80;99.90;;;;;;5005221;28;20307;-64
2022/08/20 03:20:40;;;;;;;;;;;15.70;99.90;;;;;;5001230;28;20332;-65
2022/08/20 03:23:07;;;;;;;;;;;15.70;99.90;;;;;;5000390;28;20024;-64
2022/08/20 03:25:34;;;;;;;;;;;15.70;99.90;;;;;;4999468;28;19929;-64
2022/08/20 03:28:02;;;;;;;;;;;15.60;99.90;;;;;;4998400;28;20023;-65
2022/08/20 03:30:30;;;;;;;;;;;15.60;99.90;;;;;;4999618;28;19926;-65
2022/08/20 03:32:57;;;;;;;;;;;15.50;99.90;;;;;;4999238;28;20426;-64
2022/08/20 03:35:24;;;;;;;;;;;15.60;99.90;;;;;;5002127;28;19936;-64
2022/08/20 03:37:51;;;;;;;;;;;15.50;99.90;;;;;;5001459;28;20364;-64
2022/08/20 03:40:19;;;;;;;;;;;15.50;99.90;;;;;;5001456;28;20024;-64
2022/08/20 03:42:45;;;;;;;;;;;15.40;99.90;;;;;;4997896;28;19932;-64
2022/08/20 03:45:14;;;;;;;;;;;15.40;99.90;;;;;;4998646;28;20400;-64
2022/08/20 03:47:40;;;;;;;;;;;15.40;99.90;;;;;;4999596;28;19990;-64
2022/08/20 03:50:08;;;;;;;;;;;15.40;99.90;;;;;;5007046;28;19926;-64
2022/08/20 03:52:35;;;;;;;;;;;15.30;99.90;;;;;;5003506;28;19957;-64
2022/08/20 03:55:02;;;;;;;;;;;15.30;99.90;;;;;;5002052;28;19943;-64
2022/08/20 03:57:29;;;;;;;;;;;15.30;99.90;;;;;;5000741;28;19951;-65
2022/08/20 03:59:56;;;;;;;;;;;15.30;99.90;;;;;;5002815;28;19965;-64
2022/08/20 04:02:25;;;;;;;;;;;15.20;99.90;;;;;;5005869;28;19925;-65
2022/08/20 04:04:52;;;;;;;;;;;15.20;99.90;;;;;;5002777;28;20007;-64
2022/08/20 04:07:24;;;;;;;;;;;15.20;99.90;;;;;;5001972;28;19932;-64
2022/08/20 04:09:51;;;;;;;;;;;15.20;99.90;;;;;;4999663;28;20012;-64
2022/08/20 04:12:17;;;;;;;;;;;15.20;99.90;;;;;;4998712;28;19969;-64
2022/08/20 04:14:44;;;;;;;;;;;15.00;99.90;;;;;;4998595;28;19961;-64
2022/08/20 04:17:12;;;;;;;;;;;15.10;99.90;;;;;;5000173;28;20012;-64
2022/08/20 04:19:40;;;;;;;;;;;15.10;99.90;;;;;;4999777;28;19926;-64
2022/08/20 04:22:07;;;;;;;;;;;15.10;99.90;;;;;;4996445;28;19934;-64
2022/08/20 04:24:34;;;;;;;;;;;15.10;99.90;;;;;;4998563;28;20280;-64
2022/08/20 04:27:03;;;;;;;;;;;15.00;99.90;;;;;;4998347;28;20016;-64
2022/08/20 04:29:32;;;;;;;;;;;15.00;99.90;;;;;;4998584;28;19957;-64
2022/08/20 04:31:59;;;;;;;;;;;15.00;99.90;;;;;;4998885;28;19933;-63
2022/08/20 04:34:27;;;;;;;;;;;15.00;99.90;;;;;;4998199;28;20387;-62
2022/08/20 04:36:55;;;;;;;;;;;14.90;99.90;;;;;;5006898;28;19930;-63
2022/08/20 04:39:22;;;;;;;;;;;14.90;99.90;;;;;;4998528;28;20253;-64
2022/08/20 04:41:49;;;;;;;;;;;14.90;99.90;;;;;;5006445;28;20013;-64
2022/08/20 04:44:15;;;;;;;;;;;14.90;99.90;;;;;;5000457;28;20016;-65
2022/08/20 04:46:43;;;;;;;;;;;14.90;99.90;;;;;;5001820;28;20025;-64
2022/08/20 04:49:09;;;;;;;;;;;14.90;99.90;;;;;;5002902;28;20011;-64
2022/08/20 04:51:36;;;;;;;;;;;14.80;99.90;;;;;;5005095;28;19936;-64
2022/08/20 04:54:04;;;;;;;;;;;14.80;99.90;;;;;;4999804;28;19980;-65
2022/08/20 04:56:33;;;;;;;;;;;14.80;99.90;;;;;;4998928;28;19925;-65
2022/08/20 04:59:01;;;;;;;;;;;14.80;99.90;;;;;;4996039;28;20342;-65
2022/08/20 05:01:28;;;;;;;;;;;14.80;99.90;;;;;;4998008;28;20029;-64
2022/08/20 05:03:55;;;;;;;;;;;14.80;99.90;;;;;;4998159;28;20403;-67
2022/08/20 05:06:23;;;;;;;;;;;14.80;99.90;;;;;;5002801;28;19925;-65
2022/08/20 05:08:50;;;;;;;;;;;14.90;99.90;;;;;;5003359;28;20003;-64
2022/08/20 05:11:20;;;;;;;;;;;14.80;99.90;;;;;;4998413;28;19943;-65
2022/08/20 05:13:47;;;;;;;;;;;14.90;99.90;;;;;;4997205;28;19934;-65
2022/08/20 05:16:16;;;;;;;;;;;14.90;99.90;;;;;;4998387;28;20426;-65
2022/08/20 05:18:44;;;;;;;;;;;14.90;99.90;;;;;;4996121;28;19965;-64
2022/08/20 05:21:10;;;;;;;;;;;14.90;99.90;;;;;;4993361;28;19934;-65
2022/08/20 05:23:41;;;;;;;;;;;14.90;99.90;;;;;;4998678;28;19929;-65
2022/08/20 05:26:09;;;;;;;;;;;14.90;99.90;;;;;;5000892;28;19933;-65
2022/08/20 05:28:38;;;;;;;;;;;15.00;99.90;;;;;;5005562;28;19926;-65
2022/08/20 05:31:08;;;;;;;;;;;15.00;99.90;;;;;;5000940;28;20231;-63
2022/08/20 05:33:35;;;;;;;;;;;15.10;99.90;;;;;;5003233;28;20028;-62
2022/08/20 05:36:04;;;;;;;;;;;15.10;99.90;;;;;;5002231;28;19964;-63
2022/08/20 05:38:31;;;;;;;;;;;15.10;99.90;;;;;;5001507;28;19926;-62
2022/08/20 05:40:57;;;;;;;;;;;15.20;99.90;;;;;;4996685;28;20008;-63
2022/08/20 05:43:24;;;;;;;;;;;15.20;99.90;;;;;;5000355;28;20376;-64
2022/08/20 05:45:52;;;;;;;;;;;15.30;99.90;;;;;;5004670;28;19933;-65
2022/08/20 05:48:19;;;;;;;;;;;15.40;99.90;;;;;;5002503;28;19932;-64
2022/08/20 05:50:48;;;;;;;;;;;15.50;99.90;;;;;;4997361;28;20388;-64
2022/08/20 05:53:15;;;;;;;;;;;15.50;99.90;;;;;;4992754;28;19925;-64
2022/08/20 05:55:42;;;;;;;;;;;15.60;99.90;;;;;;4996663;28;19932;-64
2022/08/20 05:58:14;;;;;;;;;;;15.70;99.90;;;;;;5000773;28;19929;-64
2022/08/20 06:00:41;;;;;;;;;;;15.80;99.90;;;;;;4995338;28;19932;-65
2022/08/20 06:05:53;;;;;;;;;;;16.20;99.90;;;;;;4997834;28;19932;-64
2022/08/20 06:08:20;;;;;;;;;;;16.30;99.90;;;;;;4997786;28;20276;-64
2022/08/20 06:10:46;;;;;;;;;;;16.30;99.90;;;;;;5002301;28;19947;-65
2022/08/20 06:13:13;;;;;;;;;;;16.40;99.90;;;;;;4995179;28;20028;-64
2022/08/20 06:15:40;;;;;;;;;;;16.40;99.90;;;;;;5001732;28;19926;-64
2022/08/20 06:18:07;;;;;;;;;;;16.40;99.90;;;;;;5003013;28;19926;-67
2022/08/20 06:20:36;;;;;;;;;;;16.50;99.90;;;;;;5003051;28;19933;-64
2022/08/20 06:23:04;;;;;;;;;;;16.50;99.90;;;;;;5005058;28;19926;-62
2022/08/20 06:25:30;;;;;;;;;;;16.70;99.90;;;;;;5006983;28;20046;-64
2022/08/20 06:27:57;;;;;;;;;;;16.80;99.90;;;;;;5002162;28;20020;-64
2022/08/20 06:30:24;;;;;;;;;;;16.90;99.90;;;;;;5006636;28;19929;-64
2022/08/20 06:32:51;;;;;;;;;;;17.00;99.90;;;;;;5002016;28;19933;-64
2022/08/20 06:35:18;;;;;;;;;;;17.10;99.90;;;;;;5003000;28;20347;-64
2022/08/20 06:37:46;;;;;;;;;;;17.20;99.90;;;;;;5063401;22;20467;-63
2022/08/20 06:40:15;;;;;;;;;;;17.20;99.90;;;;;;5058331;28;19934;-64
2022/08/20 06:42:42;;;;;;;;;;;17.30;99.90;;;;;;5066631;28;20011;-62
2022/08/20 06:45:10;;;;;;;;;;;17.40;99.90;;;;;;5059804;28;19929;-64
2022/08/20 06:47:39;;;;;;;;;;;17.40;99.90;;;;;;5059765;28;20023;-64
2022/08/20 06:50:07;;;;;;;;;;;17.50;99.90;;;;;;5068238;28;19924;-64
2022/08/20 06:52:38;;;;;;;;;;;17.60;99.90;;;;;;5065580;28;20406;-64
2022/08/20 06:55:07;;;;;;;;;;;17.70;99.90;;;;;;5066326;28;20456;-64
2022/08/20 06:57:34;;;;;;;;;;;17.90;99.90;;;;;;5065647;28;19925;-63
2022/08/20 07:00:01;;;;;;;;;;;18.10;99.90;;;;;;5069960;28;20450;-63
2022/08/20 07:02:28;;;;;;;;;;;18.10;99.90;;;;;;5065300;28;20016;-63
2022/08/20 07:04:55;;;;;;;;;;;18.20;99.90;;;;;;5066573;28;20428;-64
2022/08/20 07:07:21;;;;;;;;;;;18.20;99.90;;;;;;5066332;28;19931;-64
2022/08/20 07:09:48;;;;;;;;;;;18.30;99.90;;;;;;5068356;28;19928;-63
2022/08/20 07:12:16;;;;;;;;;;;18.70;99.90;;;;;;5066479;28;19924;-63
2022/08/20 07:14:43;;;;;;;;;;;20.90;99.90;;;;;;5061967;28;19928;-64
2022/08/20 07:17:10;;;;;;;;;;;23.40;99.90;;;;;;5063192;28;19943;-65
2022/08/20 07:19:37;;;;;;;;;;;25.30;99.90;;;;;;5065247;28;20027;-64
2022/08/20 07:22:04;;;;;;;;;;;26.90;97.40;;;;;;5063109;28;19925;-64
2022/08/20 07:24:30;;;;;;;;;;;26.80;95.30;;;;;;5062763;28;20401;-64
2022/08/20 07:27:00;;;;;;;;;;;27.90;93.10;;;;;;5067930;28;20026;-64
2022/08/20 07:32:33;;;;;;;;;;;28.80;89.90;;;;;;5069134;28;19939;-64
2022/08/20 07:34:59;;;;;;;;;;;28.80;81.50;;;;;;5067253;28;19939;-64
2022/08/20 07:37:26;;;;;;;;;;;29.00;80.80;;;;;;5041519;28;19925;-64
2022/08/20 07:39:53;;;;;;;;;;;29.50;80.20;;;;;;5043448;28;19933;-65
2022/08/20 07:42:19;;;;;;;;;;;30.00;75.30;;;;;;5040971;28;20029;-63
2022/08/20 07:44:48;;;;;;;;;;;30.40;71.30;;;;;;5049643;28;19924;-65
2022/08/20 07:47:18;;;;;;;;;;;31.00;66.40;;;;;;5052425;28;19925;-63
2022/08/20 07:49:44;;;;;;;;;;;31.60;61.80;;;;;;5048343;28;20405;-63
2022/08/20 07:52:12;;;;;;;;;;;31.40;56.60;;;;;;5059717;28;19939;-64
2022/08/20 07:54:38;;;;;;;;;;;31.00;56.80;;;;;;5053326;28;20023;-64
2022/08/20 07:57:05;;;;;;;;;;;30.80;58.20;;;;;;5037919;28;19932;-65
2022/08/20 07:59:32;;;;;;;;;;;30.90;57.20;;;;;;5037210;28;19933;-64
2022/08/20 08:02:00;;;;;;;;;;;31.10;55.90;;;;;;5036227;28;20038;-65
2022/08/20 08:04:27;;;;;;;;;;;31.50;54.70;;;;;;5054282;28;19929;-64
2022/08/20 08:06:58;;;;;;;;;;;31.00;54.70;;;;;;5040451;28;19929;-63
2022/08/20 08:09:26;;;;;;;;;;;31.00;53.80;;;;;;5044215;28;19925;-64
2022/08/20 08:11:56;;;;;;;;;;;30.60;55.90;;;;;;5055692;28;19924;-65
2022/08/20 08:14:25;;;;;;;;;;;30.70;55.00;;;;;;5059710;28;19925;-65
2022/08/20 08:16:53;;;;;;;;;;;31.40;52.80;;;;;;5064126;28;19924;-66
2022/08/20 08:19:21;;;;;;;;;;;31.40;51.90;;;;;;5042229;28;19933;-65
2022/08/20 08:21:48;;;;;;;;;;;31.70;51.60;;;;;;5038160;28;19935;-64
2022/08/20 08:24:16;;;;;;;;;;;31.10;52.00;;;;;;5037370;28;19931;-64
2022/08/20 08:26:43;;;;;;;;;;;29.90;52.90;;;;;;5045547;28;20019;-64
2022/08/20 08:29:10;;;;;;;;;;;30.50;52.20;;;;;;5051320;28;20021;-64
2022/08/20 08:31:39;;;;;;;;;;;;;;;;;;5052377;28;19935;-63
2022/08/20 08:34:06;;;;;;;;;;;;;;;;;;5051014;28;19933;-64
2022/08/20 08:36:33;;;;;;;;;;;;;;;;;;5042336;28;19991;-64
2022/08/20 08:39:00;;;;;;;;;;;;;;;;;;5041901;28;19925;-64
2022/08/20 08:41:31;;;;;;;;;;;32.30;82.20;;;;;;5062539;28;19960;-65
2022/08/20 08:44:00;;;;;;;;;;;32.30;76.80;;;;;;5051099;28;19925;-65
2022/08/20 08:46:27;;;;;;;;;;;32.40;69.40;;;;;;5063372;28;19925;-65
2022/08/20 08:48:56;;;;;;;;;;;32.40;41.00;;;;;;5048279;28;19929;-64
2022/08/20 08:51:26;;;;;;;;;;;31.30;38.90;;;;;;5057396;28;19930;-64
2022/08/20 08:53:54;;;;;;;;;;;31.80;38.00;;;;;;5048787;28;20303;-64
2022/08/20 08:56:23;;;;;;;;;;;30.90;39.00;;;;;;5060879;28;19947;-64
2022/08/20 08:58:54;;;;;;;;;;;30.30;39.90;;;;;;5059535;28;20003;-64
2022/08/20 09:01:22;;;;;;;;;;;29.20;42.40;;;;;;5057572;28;20303;-65
2022/08/20 09:03:50;;;;;;;;;;;29.10;41.50;;;;;;5050587;28;19925;-64
2022/08/20 09:06:19;;;;;;;;;;;29.10;42.60;;;;;;5051466;28;19925;-64
2022/08/20 09:08:48;;;;;;;;;;;29.40;40.90;;;;;;5044788;28;19925;-64
2022/08/20 09:11:15;;;;;;;;;;;29.40;38.60;;;;;;5063960;28;19924;-64
2022/08/20 09:13:43;;;;;;;;;;;30.50;38.10;;;;;;5054974;28;19932;-65
2022/08/20 09:16:11;;;;;;;;;;;30.20;36.90;;;;;;5065419;28;19925;-64
2022/08/20 09:18:38;;;;;;;;;;;30.50;37.00;;;;;;5053397;28;20022;-64
2022/08/20 09:21:05;;;;;;;;;;;30.50;35.90;;;;;;5054113;28;19931;-64
2022/08/20 09:23:31;;;;;;;;;;;30.70;35.30;;;;;;5054729;28;19925;-65
2022/08/20 09:25:58;;;;;;;;;;;30.10;35.50;;;;;;5049996;28;20003;-63
2022/08/20 09:28:25;;;;;;;;;;;29.50;36.90;;;;;;5050452;28;20288;-64
2022/08/20 09:30:52;;;;;;;;;;;29.50;36.60;;;;;;5056504;28;19924;-64
2022/08/20 09:33:21;;;;;;;;;;;31.00;33.60;;;;;;5054728;28;20003;-64
2022/08/20 09:35:48;;;;;;;;;;;31.40;30.70;;;;;;5049365;28;19988;-65
2022/08/20 09:38:15;;;;;;;;;;;29.80;34.00;;;;;;5050194;28;19933;-65
2022/08/20 09:40:41;;;;;;;;;;;27.90;33.80;;;;;;5048224;28;20019;-64
2022/08/20 09:43:08;;;;;;;;;;;26.00;42.40;;;;;;5050877;28;19964;-64
2022/08/20 09:45:35;;;;;;;;;;;25.10;49.30;;;;;;5044949;28;20424;-64
2022/08/20 09:48:02;;;;;;;;;;;24.60;52.80;;;;;;5047003;28;20020;-64
2022/08/20 09:50:33;;;;;;;;;;;24.70;53.70;;;;;;5051883;28;19931;-64
2022/08/20 09:53:01;;;;;;;;;;;24.60;54.00;;;;;;5051754;28;19924;-65
2022/08/20 09:55:31;;;;;;;;;;;24.20;50.30;;;;;;5049232;28;20019;-65
2022/08/20 09:57:58;;;;;;;;;;;24.00;50.30;;;;;;5047544;28;19968;-64
2022/08/20 10:00:25;;;;;;;;;;;24.80;49.90;;;;;;5062709;28;19932;-64
2022/08/20 10:02:51;;;;;;;;;;;26.30;44.40;;;;;;5049572;28;19924;-64
2022/08/20 10:05:18;;;;;;;;;;;27.50;49.90;;;;;;5056391;28;19986;-64
2022/08/20 10:07:46;;;;;;;;;;;27.30;42.80;;;;;;5047401;28;20104;-64
2022/08/20 10:10:15;;;;;;;;;;;26.40;37.40;;;;;;5044241;28;20031;-63
2022/08/20 10:12:41;;;;;;;;;;;25.70;39.60;;;;;;5049352;28;19925;-63
2022/08/20 10:15:09;;;;;;;;;;;25.50;43.80;;;;;;5055289;28;19959;-64
2022/08/20 10:17:37;;;;;;;;;;;25.50;43.40;;;;;;5050459;28;19925;-63
2022/08/20 10:20:04;;;;;;;;;;;25.30;41.60;;;;;;5052370;28;20039;-64
2022/08/20 10:22:31;;;;;;;;;;;25.10;42.20;;;;;;5044363;28;20440;-63
2022/08/20 10:24:59;;;;;;;;;;;24.80;42.70;;;;;;5051660;28;19932;-62
2022/08/20 10:27:26;;;;;;;;;;;24.50;46.40;;;;;;5049804;28;19931;-63
2022/08/20 10:29:53;;;;;;;;;;;24.40;48.60;;;;;;5046462;28;20396;-63
2022/08/20 10:32:19;;;;;;;;;;;24.30;48.50;;;;;;5062195;28;19929;-64
2022/08/20 10:34:46;;;;;;;;;;;24.10;46.80;;;;;;5047736;28;20028;-63
2022/08/20 10:37:15;;;;;;;;;;;24.10;49.20;;;;;;5052760;28;19931;-63
2022/08/20 10:39:42;;;;;;;;;;;24.10;47.60;;;;;;5049234;28;20007;-63
2022/08/20 10:42:10;;;;;;;;;;;24.00;48.40;;;;;;5051757;28;19992;-63
2022/08/20 10:44:37;;;;;;;;;;;24.00;45.90;;;;;;5055108;28;19932;-63
2022/08/20 10:47:14;;;;;;;;;;;23.50;45.70;;;;;;5047600;28;19932;-63
2022/08/20 10:49:40;;;;;;;;;;;24.30;45.60;;;;;;5042479;28;19925;-63
2022/08/20 10:52:07;;;;;;;;;;;24.40;43.40;;;;;;5049900;28;19947;-64
2022/08/20 10:54:34;;;;;;;;;;;24.40;45.30;;;;;;5063650;28;19934;-63
2022/08/20 10:57:01;;;;;;;;;;;24.30;44.10;;;;;;5058773;28;20377;-64
2022/08/20 10:59:29;;;;;;;;;;;24.20;45.90;;;;;;5047468;28;19948;-63
2022/08/20 11:01:56;;;;;;;;;;;24.10;45.50;;;;;;5053066;28;20252;-64
2022/08/20 11:04:22;;;;;;;;;;;24.30;45.90;;;;;;5053546;28;20024;-65
2022/08/20 11:06:49;;;;;;;;;;;24.60;44.90;;;;;;5051437;28;20008;-63
2022/08/20 11:09:16;;;;;;;;;;;25.10;43.40;;;;;;5052686;28;19928;-64
2022/08/20 11:11:42;;;;;;;;;;;25.20;42.10;;;;;;5049810;28;19968;-64
2022/08/20 11:14:09;;;;;;;;;;;25.30;42.80;;;;;;5064504;28;19924;-64
2022/08/20 11:16:37;;;;;;;;;;;25.50;40.70;;;;;;5063684;28;20019;-63
2022/08/20 11:19:04;;;;;;;;;;;25.20;41.10;;;;;;5063366;28;20014;-63
2022/08/20 11:21:30;;;;;;;;;;;25.00;43.50;;;;;;5051408;28;19931;-64
2022/08/20 11:23:57;;;;;;;;;;;25.00;43.40;;;;;;5053432;28;19933;-63
2022/08/20 11:26:24;;;;;;;;;;;25.30;43.60;;;;;;5047039;28;19976;-63
2022/08/20 11:28:51;;;;;;;;;;;25.40;43.00;;;;;;5054634;28;20007;-63
2022/08/20 11:31:18;;;;;;;;;;;25.30;42.90;;;;;;5059773;28;19983;-63
2022/08/20 11:33:46;;;;;;;;;;;25.50;42.60;;;;;;5048224;28;19925;-63
2022/08/20 11:36:13;;;;;;;;;;;25.40;43.20;;;;;;5059885;28;20398;-63
2022/08/20 11:38:39;;;;;;;;;;;24.90;41.70;;;;;;5059947;28;19970;-64
2022/08/20 11:41:06;;;;;;;;;;;24.60;42.10;;;;;;5049210;28;19996;-64
2022/08/20 11:43:33;;;;;;;;;;;24.30;43.90;;;;;;5047939;28;19935;-64
2022/08/20 11:45:59;;;;;;;;;;;24.00;46.10;;;;;;5052390;28;19931;-63
2022/08/20 11:48:26;;;;;;;;;;;23.70;47.00;;;;;;5044841;28;19925;-63
2022/08/20 11:50:54;;;;;;;;;;;24.00;47.10;;;;;;5048319;28;20272;-64
2022/08/20 11:53:21;;;;;;;;;;;24.40;47.40;;;;;;5047352;28;19979;-63
2022/08/20 11:55:48;;;;;;;;;;;24.90;43.00;;;;;;5056248;28;19979;-63
2022/08/20 11:58:14;;;;;;;;;;;25.10;41.20;;;;;;5053483;28;20007;-63
2022/08/20 12:00:41;;;;;;;;;;;25.00;44.00;;;;;;5045040;28;20417;-63
2022/08/20 12:03:08;;;;;;;;;;;24.90;44.00;;;;;;5051271;28;20307;-63
2022/08/20 12:05:35;;;;;;;;;;;24.80;43.40;;;;;;5046077;28;20019;-64
2022/08/20 12:08:03;;;;;;;;;;;24.80;42.80;;;;;;5056441;28;19924;-63
2022/08/20 12:10:30;;;;;;;;;;;24.90;41.30;;;;;;5055474;28;20007;-64
2022/08/20 12:12:57;;;;;;;;;;;24.80;41.70;;;;;;5050097;28;19937;-64
2022/08/20 12:15:25;;;;;;;;;;;24.70;42.90;;;;;;5050124;28;20003;-63
2022/08/20 12:17:52;;;;;;;;;;;24.90;41.30;;;;;;5049908;28;20015;-62
2022/08/20 12:20:19;;;;;;;;;;;25.30;39.60;;;;;;5058223;28;20023;-63
2022/08/20 12:22:46;;;;;;;;;;;25.20;39.20;;;;;;5049171;28;20457;-63
2022/08/20 12:25:14;;;;;;;;;;;25.40;39.00;;;;;;5048064;28;20029;-63
2022/08/20 12:27:41;;;;;;;;;;;25.50;37.00;;;;;;5051820;28;19933;-63
2022/08/20 12:30:10;;;;;;;;;;;25.30;37.10;;;;;;5053629;28;19931;-64
2022/08/20 12:32:36;;;;;;;;;;;25.50;36.70;;;;;;5048725;28;19968;-64
2022/08/20 12:35:05;;;;;;;;;;;25.60;36.80;;;;;;5050283;28;20447;-63
2022/08/20 12:37:32;;;;;;;;;;;25.50;38.00;;;;;;5049013;28;20023;-62
2022/08/20 12:40:00;;;;;;;;;;;25.00;40.00;;;;;;5042923;28;20020;-63
2022/08/20 12:42:29;;;;;;;;;;;24.80;41.80;;;;;;5054197;28;20000;-63
2022/08/20 12:44:56;;;;;;;;;;;24.50;42.20;;;;;;5045589;28;20008;-63
2022/08/20 12:47:23;;;;;;;;;;;24.60;42.20;;;;;;5040389;28;19944;-64
2022/08/20 12:49:53;;;;;;;;;;;25.00;42.80;;;;;;5053452;28;20024;-64
2022/08/20 12:52:20;;;;;;;;;;;25.30;41.60;;;;;;5053191;28;19924;-64
2022/08/20 12:54:47;;;;;;;;;;;25.10;40.30;;;;;;5051637;28;20011;-63
2022/08/20 12:57:15;;;;;;;;;;;24.80;40.20;;;;;;5049350;28;20457;-64
2022/08/20 12:59:43;;;;;;;;;;;24.70;41.00;;;;;;5055255;28;19956;-62
2022/08/20 13:02:09;;;;;;;;;;;24.60;40.90;;;;;;5051109;28;19935;-63
2022/08/20 13:04:36;;;;;;;;;;;24.60;41.90;;;;;;5053130;28;20019;-63
2022/08/20 13:07:04;;;;;;;;;;;25.00;42.60;;;;;;5047230;28;20015;-63
2022/08/20 13:09:31;;;;;;;;;;;25.40;41.10;;;;;;5045008;28;19929;-63
2022/08/20 13:11:57;;;;;;;;;;;25.10;41.90;;;;;;5053582;28;19979;-63
2022/08/20 13:14:24;;;;;;;;;;;25.30;40.90;;;;;;5055904;28;19929;-64
2022/08/20 13:16:56;;;;;;;;;;;25.60;41.20;;;;;;5059252;28;20363;-64
2022/08/20 13:19:23;;;;;;;;;;;25.60;41.00;;;;;;5042149;28;19968;-63
2022/08/20 13:21:50;;;;;;;;;;;25.70;39.60;;;;;;5043405;28;19931;-63
2022/08/20 13:24:16;;;;;;;;;;;25.70;40.40;;;;;;5043156;28;19929;-63
2022/08/20 13:26:43;;;;;;;;;;;25.80;41.00;;;;;;5044684;28;19937;-64
2022/08/20 13:29:10;;;;;;;;;;;26.20;40.50;;;;;;5047269;28;19980;-64
2022/08/20 13:31:37;;;;;;;;;;;25.80;38.80;;;;;;5059689;28;19925;-62
2022/08/20 13:34:05;;;;;;;;;;;25.70;35.60;;;;;;5051642;28;20012;-64
2022/08/20 13:36:31;;;;;;;;;;;25.70;35.30;;;;;;5049932;28;20051;-64
2022/08/20 13:38:58;;;;;;;;;;;25.30;32.50;;;;;;5047177;28;20481;-63
2022/08/20 13:41:25;;;;;;;;;;;25.50;33.40;;;;;;5056952;28;19971;-64
2022/08/20 13:43:52;;;;;;;;;;;25.60;33.10;;;;;;5053010;28;19960;-64
2022/08/20 13:46:18;;;;;;;;;;;25.60;33.30;;;;;;5045534;28;20490;-64
2022/08/20 13:48:45;;;;;;;;;;;26.00;33.40;;;;;;5041805;28;20395;-64
2022/08/20 13:51:13;;;;;;;;;;;26.00;33.50;;;;;;5052375;28;20366;-63
2022/08/20 13:53:40;;;;;;;;;;;25.60;34.20;;;;;;5050623;28;20454;-63
2022/08/20 13:56:07;;;;;;;;;;;25.50;35.90;;;;;;5046060;28;19925;-64
2022/08/20 13:58:33;;;;;;;;;;;25.30;35.60;;;;;;5043357;28;20017;-64
2022/08/20 14:01:00;;;;;;;;;;;24.80;36.60;;;;;;5045792;28;20019;-63
2022/08/20 14:03:27;;;;;;;;;;;25.20;36.90;;;;;;5047540;28;19924;-64
2022/08/20 14:05:53;;;;;;;;;;;25.70;35.30;;;;;;5038948;28;19974;-64
2022/08/20 14:08:23;;;;;;;;;;;25.40;34.60;;;;;;5042621;28;19983;-63
2022/08/20 14:10:50;;;;;;;;;;;24.70;35.00;;;;;;5048794;28;19970;-63
2022/08/20 14:13:17;;;;;;;;;;;24.70;37.20;;;;;;5045397;28;20402;-64
2022/08/20 14:15:44;;;;;;;;;;;24.70;35.20;;;;;;5045014;28;20042;-64
2022/08/20 14:18:11;;;;;;;;;;;24.90;37.20;;;;;;5044556;28;19975;-64
2022/08/20 14:20:38;;;;;;;;;;;24.90;35.70;;;;;;5048336;28;20023;-63
2022/08/20 14:23:04;;;;;;;;;;;25.00;35.00;;;;;;5046158;28;20199;-64
2022/08/20 14:25:33;;;;;;;;;;;24.90;35.40;;;;;;5047201;28;19932;-64
2022/08/20 14:28:08;;;;;;;;;;;24.90;35.10;;;;;;5037363;28;19929;-65